createdAt,value
2019-06-10T00:00:22.573Z,1012.10
2019-06-10T00:01:22.636Z,1012.08
2019-06-10T00:02:22.700Z,1012.06
2019-06-10T00:03:22.781Z,1012.10
2019-06-10T00:04:22.842Z,1012.08
2019-06-10T00:05:22.902Z,1012.08
2019-06-10T00:06:22.960Z,1012.05
2019-06-10T00:07:23.029Z,1012.05
2019-06-10T00:08:23.104Z,1012.06
2019-06-10T00:09:23.162Z,1012.01
2019-06-10T00:10:23.224Z,1012.00
2019-06-10T00:11:23.288Z,1012.00
2019-06-10T00:12:23.353Z,1012.00
2019-06-10T00:13:23.425Z,1011.99
2019-06-10T00:14:23.489Z,1011.92
2019-06-10T00:15:23.545Z,1011.91
2019-06-10T00:16:23.613Z,1011.83
2019-06-10T00:17:23.677Z,1011.82
2019-06-10T00:18:38.789Z,1011.81
2019-06-10T00:19:23.813Z,1011.79
2019-06-10T00:20:23.873Z,1011.79
2019-06-10T00:21:23.937Z,1011.84
2019-06-10T00:22:24.005Z,1011.81
2019-06-10T00:23:24.089Z,1011.84
2019-06-10T00:24:24.149Z,1011.81
2019-06-10T00:25:24.198Z,1011.82
2019-06-10T00:26:24.262Z,1011.82
2019-06-10T00:27:24.326Z,1011.79
2019-06-10T00:28:24.398Z,1011.79
2019-06-10T00:29:24.466Z,1011.78
2019-06-10T00:30:24.522Z,1011.79
2019-06-10T00:31:24.586Z,1011.74
2019-06-10T00:32:24.654Z,1011.74
2019-06-10T00:33:24.728Z,1011.67
2019-06-10T00:34:24.792Z,1011.69
2019-06-10T00:35:24.846Z,1011.67
2019-06-10T00:36:24.912Z,1011.63
2019-06-10T00:37:24.978Z,1011.63
2019-06-10T00:38:25.050Z,1011.62
2019-06-10T00:39:25.138Z,1011.64
2019-06-10T00:40:25.170Z,1011.66
2019-06-10T00:41:25.234Z,1011.66
2019-06-10T00:42:25.303Z,1011.65
2019-06-10T00:43:25.378Z,1011.60
2019-06-10T00:44:25.431Z,1011.60
2019-06-10T00:45:25.495Z,1011.57
2019-06-10T00:46:25.562Z,1011.55
2019-06-10T00:47:25.627Z,1011.56
2019-06-10T00:48:29.118Z,1011.58
2019-06-10T00:49:25.769Z,1011.52
2019-06-10T00:50:25.819Z,1011.52
2019-06-10T00:51:25.883Z,1011.48
2019-06-10T00:52:25.951Z,1011.49
2019-06-10T00:53:26.025Z,1011.49
2019-06-10T00:54:26.087Z,1011.47
2019-06-10T00:55:26.143Z,1011.43
2019-06-10T00:56:26.207Z,1011.45
2019-06-10T00:57:26.275Z,1011.43
2019-06-10T00:58:26.347Z,1011.43
2019-06-10T00:59:26.412Z,1011.40
2019-06-10T01:00:26.467Z,1011.38
2019-06-10T01:01:26.535Z,1011.38
2019-06-10T01:02:26.601Z,1011.38
2019-06-10T01:03:26.671Z,1011.31
2019-06-10T01:04:26.735Z,1011.30
2019-06-10T01:05:26.794Z,1011.32
2019-06-10T01:06:26.864Z,1011.29
2019-06-10T01:07:26.927Z,1011.30
2019-06-10T01:08:26.996Z,1011.30
2019-06-10T01:09:27.060Z,1011.31
2019-06-10T01:10:27.123Z,1011.27
2019-06-10T01:11:27.440Z,1011.26
2019-06-10T01:12:27.248Z,1011.28
2019-06-10T01:13:27.488Z,1011.25
2019-06-10T01:14:27.376Z,1011.24
2019-06-10T01:15:27.440Z,1011.19
2019-06-10T01:16:27.508Z,1011.19
2019-06-10T01:17:27.568Z,1011.18
2019-06-10T01:18:37.482Z,1011.17
2019-06-10T01:19:27.708Z,1011.16
2019-06-10T01:20:27.764Z,1011.14
2019-06-10T01:21:27.832Z,1011.12
2019-06-10T01:22:27.908Z,1011.11
2019-06-10T01:23:27.969Z,1011.10
2019-06-10T01:24:28.032Z,1011.14
2019-06-10T01:25:28.089Z,1011.15
2019-06-10T01:26:30.849Z,1011.13
2019-06-10T01:27:28.221Z,1011.09
2019-06-10T01:28:31.189Z,1011.08
2019-06-10T01:29:28.349Z,1011.08
2019-06-10T01:30:31.100Z,1011.08
2019-06-10T01:31:28.481Z,1011.08
2019-06-10T01:32:31.034Z,1011.04
2019-06-10T01:33:28.617Z,1011.05
2019-06-10T01:34:30.966Z,1011.06
2019-06-10T01:35:30.601Z,1011.08
2019-06-10T01:36:31.204Z,1011.04
2019-06-10T01:37:30.977Z,1011.03
2019-06-10T01:38:31.521Z,1011.01
2019-06-10T01:39:30.901Z,1011.01
2019-06-10T01:40:31.302Z,1011.02
2019-06-10T01:41:30.595Z,1010.99
2019-06-10T01:42:30.704Z,1010.98
2019-06-10T01:43:31.818Z,1011.00
2019-06-10T01:44:30.967Z,1011.05
2019-06-10T01:45:31.248Z,1011.01
2019-06-10T01:46:31.471Z,1011.02
2019-06-10T01:47:30.992Z,1011.00
2019-06-10T01:48:43.266Z,1011.00
2019-06-10T01:49:30.763Z,1010.94
2019-06-10T01:50:31.175Z,1010.90
2019-06-10T01:51:31.683Z,1010.84
2019-06-10T01:52:31.644Z,1010.83
2019-06-10T01:53:31.421Z,1010.82
2019-06-10T01:54:31.715Z,1010.79
2019-06-10T01:55:31.206Z,1010.76
2019-06-10T01:56:31.512Z,1010.74
2019-06-10T01:57:30.834Z,1010.70
2019-06-10T01:58:31.569Z,1010.69
2019-06-10T01:59:31.187Z,1010.66
2019-06-10T02:00:31.191Z,1010.66
2019-06-10T02:01:30.709Z,1010.64
2019-06-10T02:02:34.992Z,1010.65
2019-06-10T02:03:31.401Z,1010.63
2019-06-10T02:04:32.068Z,1010.61
2019-06-10T02:05:31.166Z,1010.62
2019-06-10T02:06:31.640Z,1010.60
2019-06-10T02:07:31.964Z,1010.60
2019-06-10T02:08:31.647Z,1010.60
2019-06-10T02:09:31.151Z,1010.59
2019-06-10T02:10:31.144Z,1010.56
2019-06-10T02:11:31.731Z,1010.57
2019-06-10T02:12:31.633Z,1010.52
2019-06-10T02:13:33.193Z,1010.53
2019-06-10T02:14:31.739Z,1010.56
2019-06-10T02:15:31.573Z,1010.52
2019-06-10T02:16:32.568Z,1010.50
2019-06-10T02:17:31.594Z,1010.46
2019-06-10T02:18:32.125Z,1010.44
2019-06-10T02:19:31.623Z,1010.40
2019-06-10T02:20:31.854Z,1010.39
2019-06-10T02:21:31.720Z,1010.40
2019-06-10T02:22:31.933Z,1010.35
2019-06-10T02:23:31.878Z,1010.33
2019-06-10T02:24:31.936Z,1010.36
2019-06-10T02:25:31.980Z,1010.34
2019-06-10T02:26:32.045Z,1010.34
2019-06-10T02:27:32.109Z,1010.33
2019-06-10T02:28:32.280Z,1010.35
2019-06-10T02:29:32.243Z,1010.30
2019-06-10T02:30:44.063Z,1010.30
2019-06-10T02:31:37.567Z,1010.31
2019-06-10T02:32:37.459Z,1010.30
2019-06-10T02:33:36.442Z,1010.30
2019-06-10T02:34:36.645Z,1010.30
2019-06-10T02:35:44.208Z,1010.27
2019-06-10T02:36:36.915Z,1010.36
2019-06-10T02:37:37.967Z,1010.37
2019-06-10T02:38:38.639Z,1010.37
2019-06-10T02:39:38.249Z,1010.41
2019-06-10T02:40:36.462Z,1010.38
2019-06-10T02:41:36.217Z,1010.43
2019-06-10T02:42:35.856Z,1010.40
2019-06-10T02:43:37.537Z,1010.38
2019-06-10T02:44:37.640Z,1010.40
2019-06-10T02:45:37.372Z,1010.39
2019-06-10T02:46:36.255Z,1010.39
2019-06-10T02:47:37.592Z,1010.35
2019-06-10T02:48:34.974Z,1010.34
2019-06-10T02:49:51.525Z,1010.36
2019-06-10T02:50:36.376Z,1010.35
2019-06-10T02:51:35.710Z,1010.35
2019-06-10T02:52:38.102Z,1010.37
2019-06-10T02:53:36.107Z,1010.37
2019-06-10T02:54:35.895Z,1010.35
2019-06-10T02:55:35.125Z,1010.39
2019-06-10T02:56:36.445Z,1010.37
2019-06-10T02:57:39.694Z,1010.36
2019-06-10T02:58:38.979Z,1010.36
2019-06-10T02:59:36.323Z,1010.38
2019-06-10T03:00:42.747Z,1010.38
2019-06-10T03:01:37.990Z,1010.36
2019-06-10T03:02:36.435Z,1010.41
2019-06-10T03:03:42.558Z,1010.39
2019-06-10T03:04:37.645Z,1010.40
2019-06-10T03:05:40.964Z,1010.38
2019-06-10T03:06:39.346Z,1010.40
2019-06-10T03:07:35.729Z,1010.40
2019-06-10T03:08:36.169Z,1010.35
2019-06-10T03:09:35.682Z,1010.37
2019-06-10T03:10:37.253Z,1010.38
2019-06-10T03:11:37.217Z,1010.38
2019-06-10T03:12:35.018Z,1010.36
2019-06-10T03:13:35.282Z,1010.37
2019-06-10T03:14:35.146Z,1010.39
2019-06-10T03:15:35.210Z,1010.37
2019-06-10T03:16:35.274Z,1010.36
2019-06-10T03:17:35.343Z,1010.36
2019-06-10T03:18:35.415Z,1010.33
2019-06-10T03:19:46.978Z,1010.31
2019-06-10T03:20:35.535Z,1010.30
2019-06-10T03:21:35.601Z,1010.36
2019-06-10T03:22:35.663Z,1010.32
2019-06-10T03:23:35.739Z,1010.37
2019-06-10T03:24:35.800Z,1010.34
2019-06-10T03:25:35.859Z,1010.36
2019-06-10T03:26:35.924Z,1010.36
2019-06-10T03:27:35.989Z,1010.40
2019-06-10T03:28:36.059Z,1010.35
2019-06-10T03:29:36.125Z,1010.36
2019-06-10T03:30:47.831Z,1010.32
2019-06-10T03:31:41.873Z,1010.29
2019-06-10T03:32:40.979Z,1010.29
2019-06-10T03:33:41.416Z,1010.25
2019-06-10T03:34:41.991Z,1010.22
2019-06-10T03:35:36.504Z,1010.21
2019-06-10T03:36:36.568Z,1010.22
2019-06-10T03:37:36.633Z,1010.18
2019-06-10T03:38:37.169Z,1010.20
2019-06-10T03:39:36.767Z,1010.19
2019-06-10T03:40:36.828Z,1010.18
2019-06-10T03:41:36.892Z,1010.15
2019-06-10T03:42:36.956Z,1010.15
2019-06-10T03:43:37.056Z,1010.13
2019-06-10T03:44:37.092Z,1010.17
2019-06-10T03:45:37.152Z,1010.16
2019-06-10T03:46:37.219Z,1010.16
2019-06-10T03:47:37.312Z,1010.15
2019-06-10T03:48:37.636Z,1010.16
2019-06-10T03:49:49.979Z,1010.11
2019-06-10T03:50:37.472Z,1010.13
2019-06-10T03:51:37.536Z,1010.10
2019-06-10T03:52:37.606Z,1010.11
2019-06-10T03:53:37.677Z,1010.11
2019-06-10T03:54:37.740Z,1010.11
2019-06-10T03:55:37.796Z,1010.12
2019-06-10T03:56:37.861Z,1010.15
2019-06-10T03:57:37.928Z,1010.14
2019-06-10T03:58:38.000Z,1010.13
2019-06-10T03:59:38.065Z,1010.15
2019-06-10T04:00:38.121Z,1010.10
2019-06-10T04:01:38.317Z,1010.09
2019-06-10T04:02:38.249Z,1010.09
2019-06-10T04:03:38.341Z,1010.10
2019-06-10T04:04:38.381Z,1010.09
2019-06-10T04:05:38.445Z,1010.11
2019-06-10T04:06:38.509Z,1010.12
2019-06-10T04:07:38.573Z,1010.11
2019-06-10T04:08:38.645Z,1010.13
2019-06-10T04:09:38.710Z,1010.11
2019-06-10T04:10:38.769Z,1010.11
2019-06-10T04:11:38.907Z,1010.16
2019-06-10T04:12:38.900Z,1010.12
2019-06-10T04:13:38.976Z,1010.15
2019-06-10T04:14:39.034Z,1010.16
2019-06-10T04:15:39.091Z,1010.16
2019-06-10T04:16:39.155Z,1010.18
2019-06-10T04:17:39.222Z,1010.17
2019-06-10T04:18:39.286Z,1010.18
2019-06-10T04:19:39.463Z,1010.19
2019-06-10T04:20:39.414Z,1010.20
2019-06-10T04:21:39.478Z,1010.23
2019-06-10T04:22:39.546Z,1010.20
2019-06-10T04:23:42.149Z,1010.18
2019-06-10T04:24:39.682Z,1010.17
2019-06-10T04:25:39.746Z,1010.17
2019-06-10T04:26:39.802Z,1010.18
2019-06-10T04:27:42.281Z,1010.21
2019-06-10T04:28:39.934Z,1010.18
2019-06-10T04:29:42.068Z,1010.20
2019-06-10T04:30:40.071Z,1010.17
2019-06-10T04:31:42.291Z,1010.14
2019-06-10T04:32:40.191Z,1010.14
2019-06-10T04:33:42.095Z,1010.13
2019-06-10T04:34:42.724Z,1010.11
2019-06-10T04:35:42.585Z,1010.10
2019-06-10T04:36:42.313Z,1010.12
2019-06-10T04:37:42.639Z,1010.08
2019-06-10T04:38:42.979Z,1010.09
2019-06-10T04:39:42.629Z,1010.08
2019-06-10T04:40:42.955Z,1010.11
2019-06-10T04:41:42.715Z,1010.11
2019-06-10T04:42:43.351Z,1010.10
2019-06-10T04:43:43.085Z,1010.13
2019-06-10T04:44:42.298Z,1010.10
2019-06-10T04:45:42.938Z,1010.11
2019-06-10T04:46:42.746Z,1010.05
2019-06-10T04:47:43.159Z,1010.08
2019-06-10T04:48:42.658Z,1010.05
2019-06-10T04:49:42.854Z,1010.10
2019-06-10T04:50:46.087Z,1010.07
2019-06-10T04:51:43.511Z,1010.06
2019-06-10T04:52:43.108Z,1010.05
2019-06-10T04:53:43.473Z,1010.11
2019-06-10T04:54:42.118Z,1010.06
2019-06-10T04:55:43.092Z,1010.08
2019-06-10T04:56:42.833Z,1010.07
2019-06-10T04:57:43.139Z,1010.07
2019-06-10T04:58:43.218Z,1010.09
2019-06-10T04:59:42.840Z,1010.06
2019-06-10T05:00:42.877Z,1010.04
2019-06-10T05:01:42.695Z,1010.12
2019-06-10T05:02:43.099Z,1010.12
2019-06-10T05:03:43.357Z,1010.09
2019-06-10T05:04:42.692Z,1010.12
2019-06-10T05:05:43.050Z,1010.12
2019-06-10T05:06:42.484Z,1010.12
2019-06-10T05:07:42.866Z,1010.11
2019-06-10T05:08:42.826Z,1010.09
2019-06-10T05:09:42.600Z,1010.15
2019-06-10T05:10:42.664Z,1010.06
2019-06-10T05:11:43.188Z,1010.11
2019-06-10T05:12:43.402Z,1010.08
2019-06-10T05:13:43.166Z,1010.10
2019-06-10T05:14:43.341Z,1010.10
2019-06-10T05:15:43.416Z,1010.17
2019-06-10T05:16:43.367Z,1010.15
2019-06-10T05:17:43.914Z,1010.18
2019-06-10T05:18:43.177Z,1010.19
2019-06-10T05:19:43.241Z,1010.20
2019-06-10T05:20:53.997Z,1010.18
2019-06-10T05:21:43.373Z,1010.22
2019-06-10T05:22:43.437Z,1010.20
2019-06-10T05:23:43.501Z,1010.21
2019-06-10T05:24:43.565Z,1010.25
2019-06-10T05:25:43.725Z,1010.22
2019-06-10T05:26:43.729Z,1010.26
2019-06-10T05:27:43.761Z,1010.21
2019-06-10T05:28:43.825Z,1010.22
2019-06-10T05:29:43.893Z,1010.20
2019-06-10T05:30:43.965Z,1010.19
2019-06-10T05:31:44.030Z,1010.18
2019-06-10T05:32:44.089Z,1010.14
2019-06-10T05:33:44.154Z,1010.13
2019-06-10T05:34:44.218Z,1010.13
2019-06-10T05:35:44.282Z,1010.12
2019-06-10T05:36:44.446Z,1010.12
2019-06-10T05:37:44.413Z,1010.12
2019-06-10T05:38:44.479Z,1010.16
2019-06-10T05:39:44.542Z,1010.15
2019-06-10T05:40:44.610Z,1010.18
2019-06-10T05:41:44.689Z,1010.12
2019-06-10T05:42:44.746Z,1010.14
2019-06-10T05:43:44.806Z,1010.13
2019-06-10T05:44:44.870Z,1010.12
2019-06-10T05:45:44.938Z,1010.12
2019-06-10T05:46:45.006Z,1010.09
2019-06-10T05:47:45.074Z,1010.09
2019-06-10T05:48:45.134Z,1010.09
2019-06-10T05:49:45.198Z,1010.12
2019-06-10T05:50:59.295Z,1010.15
2019-06-10T05:51:45.346Z,1010.15
2019-06-10T05:52:45.393Z,1010.19
2019-06-10T05:53:46.419Z,1010.18
2019-06-10T05:54:45.522Z,1010.18
2019-06-10T05:55:45.586Z,1010.18
2019-06-10T05:56:45.658Z,1010.20
2019-06-10T05:57:45.731Z,1010.16
2019-06-10T05:58:45.782Z,1010.18
2019-06-10T05:59:45.855Z,1010.14
2019-06-10T06:00:45.915Z,1010.16
2019-06-10T06:01:45.987Z,1010.17
2019-06-10T06:02:46.060Z,1010.11
2019-06-10T06:03:46.111Z,1010.09
2019-06-10T06:04:46.176Z,1010.08
2019-06-10T06:05:46.243Z,1010.07
2019-06-10T06:06:46.411Z,1010.04
2019-06-10T06:08:01.067Z,1010.06
2019-06-10T06:08:46.440Z,1010.06
2019-06-10T06:09:46.503Z,1010.06
2019-06-10T06:10:46.567Z,1010.09
2019-06-10T06:11:46.643Z,1010.08
2019-06-10T06:12:46.707Z,1010.08
2019-06-10T06:13:46.763Z,1010.07
2019-06-10T06:14:46.834Z,1010.03
2019-06-10T06:15:46.896Z,1010.07
2019-06-10T06:16:46.970Z,1010.09
2019-06-10T06:17:47.035Z,1010.10
2019-06-10T06:18:47.092Z,1010.14
2019-06-10T06:19:47.156Z,1010.16
2019-06-10T06:20:47.224Z,1010.21
2019-06-10T06:21:47.973Z,1010.25
2019-06-10T06:22:47.356Z,1010.21
2019-06-10T06:23:47.421Z,1010.20
2019-06-10T06:24:47.483Z,1010.21
2019-06-10T06:25:47.570Z,1010.21
2019-06-10T06:26:47.624Z,1010.22
2019-06-10T06:27:47.689Z,1010.22
2019-06-10T06:28:47.751Z,1010.20
2019-06-10T06:29:47.812Z,1010.23
2019-06-10T06:30:47.880Z,1010.27
2019-06-10T06:31:47.952Z,1010.28
2019-06-10T06:32:48.018Z,1010.30
2019-06-10T06:33:48.077Z,1010.31
2019-06-10T06:34:48.144Z,1010.30
2019-06-10T06:35:48.209Z,1010.30
2019-06-10T06:36:48.376Z,1010.31
2019-06-10T06:37:48.343Z,1010.34
2019-06-10T06:38:48.404Z,1010.41
2019-06-10T06:39:48.472Z,1010.40
2019-06-10T06:40:48.539Z,1011.40
2019-06-10T06:41:48.613Z,1010.77
2019-06-10T06:42:48.689Z,1010.59
2019-06-10T06:43:48.744Z,1010.56
2019-06-10T06:44:48.810Z,1010.56
2019-06-10T06:45:48.876Z,1010.54
2019-06-10T06:46:48.945Z,1010.85
2019-06-10T06:47:49.009Z,1010.85
2019-06-10T06:48:49.069Z,1010.75
2019-06-10T06:49:49.137Z,1010.63
2019-06-10T06:51:01.801Z,1010.62
2019-06-10T06:51:55.090Z,1010.54
2019-06-10T06:53:19.028Z,1010.46
2019-06-10T06:53:55.349Z,1010.40
2019-06-10T06:54:49.481Z,1010.40
2019-06-10T06:55:53.414Z,1010.33
2019-06-10T06:56:49.613Z,1010.29
2019-06-10T06:57:49.687Z,1010.25
2019-06-10T06:58:52.229Z,1010.24
2019-06-10T06:59:49.810Z,1010.22
2019-06-10T07:01:01.365Z,1010.23
2019-06-10T07:01:52.305Z,1010.20
2019-06-10T07:02:52.800Z,1010.16
2019-06-10T07:03:50.090Z,1010.17
2019-06-10T07:04:52.423Z,1010.19
2019-06-10T07:05:50.218Z,1010.29
2019-06-10T07:06:53.390Z,1010.29
2019-06-10T07:07:52.635Z,1010.29
2019-06-10T07:09:01.437Z,1010.35
2019-06-10T07:09:52.573Z,1010.57
2019-06-10T07:10:52.280Z,1010.41
2019-06-10T07:11:52.850Z,1010.36
2019-06-10T07:12:52.317Z,1010.48
2019-06-10T07:13:53.336Z,1010.40
2019-06-10T07:14:52.587Z,1010.44
2019-06-10T07:15:53.329Z,1010.28
2019-06-10T07:16:52.955Z,1010.28
2019-06-10T07:17:52.631Z,1010.42
2019-06-10T07:18:53.681Z,1010.49
2019-06-10T07:19:52.877Z,1010.81
2019-06-10T07:20:53.914Z,1010.88
2019-06-10T07:22:08.800Z,1010.99
2019-06-10T07:22:53.325Z,1010.97
2019-06-10T07:23:52.801Z,1010.82
2019-06-10T07:24:52.887Z,1010.67
2019-06-10T07:25:53.196Z,1010.79
2019-06-10T07:26:54.865Z,1011.10
2019-06-10T07:27:52.738Z,1010.91
2019-06-10T07:28:53.764Z,1010.76
2019-06-10T07:29:52.940Z,1010.62
2019-06-10T07:30:55.253Z,1010.60
2019-06-10T07:31:53.575Z,1010.62
2019-06-10T07:32:52.800Z,1010.59
2019-06-10T07:33:52.683Z,1010.70
2019-06-10T07:34:52.555Z,1010.65
2019-06-10T07:35:52.853Z,1010.59
2019-06-10T07:36:52.440Z,1010.45
2019-06-10T07:37:52.500Z,1010.36
2019-06-10T07:38:53.816Z,1010.26
2019-06-10T07:39:52.565Z,1010.19
2019-06-10T07:40:53.113Z,1010.19
2019-06-10T07:41:53.071Z,1010.21
2019-06-10T07:42:53.128Z,1010.33
2019-06-10T07:43:53.166Z,1010.50
2019-06-10T07:44:53.363Z,1010.24
2019-06-10T07:45:53.493Z,1010.33
2019-06-10T07:46:53.268Z,1010.23
2019-06-10T07:47:53.128Z,1010.35
2019-06-10T07:48:56.510Z,1010.30
2019-06-10T07:49:53.260Z,1010.42
2019-06-10T07:50:53.328Z,1010.43
2019-06-10T07:51:53.400Z,1010.37
2019-06-10T07:52:53.487Z,1010.26
2019-06-10T07:53:53.544Z,1010.21
2019-06-10T07:54:53.608Z,1010.21
2019-06-10T07:55:53.701Z,1010.24
2019-06-10T07:56:54.005Z,1010.24
2019-06-10T07:57:53.824Z,1010.23
2019-06-10T07:58:53.893Z,1010.21
2019-06-10T07:59:53.956Z,1010.21
2019-06-10T08:00:54.024Z,1010.17
2019-06-10T08:01:55.236Z,1010.15
2019-06-10T08:02:54.177Z,1010.09
2019-06-10T08:03:54.233Z,1010.12
2019-06-10T08:04:54.582Z,1010.07
2019-06-10T08:05:54.372Z,1010.10
2019-06-10T08:06:54.449Z,1010.10
2019-06-10T08:07:54.905Z,1010.08
2019-06-10T08:08:54.585Z,1010.03
2019-06-10T08:09:54.649Z,1010.05
2019-06-10T08:10:54.722Z,1010.06
2019-06-10T08:11:54.785Z,1010.41
2019-06-10T08:12:54.862Z,1010.42
2019-06-10T08:13:54.935Z,1010.21
2019-06-10T08:14:54.994Z,1010.37
2019-06-10T08:15:55.064Z,1010.50
2019-06-10T08:16:55.136Z,1010.39
2019-06-10T08:17:55.213Z,1010.30
2019-06-10T08:19:20.391Z,1010.25
2019-06-10T08:19:55.347Z,1010.25
2019-06-10T08:20:55.425Z,1010.25
2019-06-10T08:21:55.481Z,1010.26
2019-06-10T08:22:57.856Z,1010.16
2019-06-10T08:23:55.635Z,1010.08
2019-06-10T08:24:55.701Z,1010.05
2019-06-10T08:25:57.769Z,1010.00
2019-06-10T08:26:55.835Z,1009.93
2019-06-10T08:27:55.910Z,1009.94
2019-06-10T08:28:55.982Z,1009.97
2019-06-10T08:30:14.086Z,1010.00
2019-06-10T08:30:56.117Z,1010.06
2019-06-10T08:31:56.186Z,1010.09
2019-06-10T08:32:56.634Z,1009.85
2019-06-10T08:33:56.338Z,1009.88
2019-06-10T08:34:56.402Z,1010.07
2019-06-10T08:36:00.410Z,1010.02
2019-06-10T08:36:56.547Z,1009.96
2019-06-10T08:37:56.614Z,1009.82
2019-06-10T08:38:56.694Z,1009.85
2019-06-10T08:39:56.768Z,1009.91
2019-06-10T08:40:56.831Z,1010.03
2019-06-10T08:41:56.902Z,1010.00
2019-06-10T08:42:56.980Z,1009.99
2019-06-10T08:43:57.059Z,1009.99
2019-06-10T08:44:59.901Z,1009.99
2019-06-10T08:45:57.196Z,1009.99
2019-06-10T08:46:57.267Z,1009.78
2019-06-10T08:47:57.343Z,1009.78
2019-06-10T08:48:57.423Z,1009.73
2019-06-10T08:49:57.497Z,1009.71
2019-06-10T08:50:57.563Z,1009.72
2019-06-10T08:51:57.635Z,1009.82
2019-06-10T08:53:12.816Z,1009.78
2019-06-10T08:53:57.787Z,1009.82
2019-06-10T08:54:57.859Z,1009.91
2019-06-10T08:55:57.923Z,1010.06
2019-06-10T08:56:57.995Z,1010.09
2019-06-10T08:57:58.071Z,1010.05
2019-06-10T08:58:58.235Z,1009.90
2019-06-10T08:59:58.215Z,1009.94
2019-06-10T09:00:58.290Z,1009.84
2019-06-10T09:01:58.419Z,1009.85
2019-06-10T09:02:58.431Z,1009.76
2019-06-10T09:03:58.512Z,1009.67
2019-06-10T09:04:58.587Z,1009.70
2019-06-10T09:05:58.696Z,1009.71
2019-06-10T09:06:58.724Z,1009.74
2019-06-10T09:07:58.804Z,1009.82
2019-06-10T09:08:58.876Z,1009.76
2019-06-10T09:09:58.950Z,1009.81
2019-06-10T09:10:59.012Z,1009.67
2019-06-10T09:11:59.085Z,1009.63
2019-06-10T09:12:59.156Z,1009.50
2019-06-10T09:13:59.252Z,1009.54
2019-06-10T09:14:59.305Z,1009.59
2019-06-10T09:16:10.890Z,1009.60
2019-06-10T09:16:59.448Z,1009.59
2019-06-10T09:17:59.521Z,1009.60
2019-06-10T09:19:02.092Z,1009.65
2019-06-10T09:19:59.673Z,1009.55
2019-06-10T09:21:02.163Z,1009.57
2019-06-10T09:21:59.810Z,1009.55
2019-06-10T09:23:15.066Z,1009.58
2019-06-10T09:24:03.611Z,1009.59
2019-06-10T09:25:02.743Z,1009.55
2019-06-10T09:26:00.097Z,1009.55
2019-06-10T09:27:02.711Z,1009.54
2019-06-10T09:28:02.326Z,1009.58
2019-06-10T09:29:02.951Z,1009.58
2019-06-10T09:30:02.824Z,1009.53
2019-06-10T09:31:03.656Z,1009.56
2019-06-10T09:32:02.151Z,1009.49
2019-06-10T09:33:03.864Z,1009.49
2019-06-10T09:34:03.364Z,1009.51
2019-06-10T09:35:03.227Z,1009.60
2019-06-10T09:36:03.008Z,1009.58
2019-06-10T09:37:03.158Z,1009.55
2019-06-10T09:38:03.514Z,1009.53
2019-06-10T09:39:03.737Z,1009.51
2019-06-10T09:40:03.402Z,1009.52
2019-06-10T09:41:05.191Z,1009.46
2019-06-10T09:42:05.926Z,1009.55
2019-06-10T09:43:02.457Z,1009.55
2019-06-10T09:44:03.219Z,1009.57
2019-06-10T09:45:02.633Z,1009.59
2019-06-10T09:46:03.473Z,1009.56
2019-06-10T09:47:03.354Z,1009.52
2019-06-10T09:48:03.982Z,1009.50
2019-06-10T09:49:02.209Z,1009.42
2019-06-10T09:50:03.211Z,1009.44
2019-06-10T09:51:02.601Z,1009.44
2019-06-10T09:52:03.452Z,1009.37
2019-06-10T09:53:03.383Z,1009.41
2019-06-10T09:54:06.352Z,1009.33
2019-06-10T09:55:03.214Z,1009.25
2019-06-10T09:56:04.099Z,1009.29
2019-06-10T09:57:02.598Z,1009.26
2019-06-10T09:58:03.183Z,1009.24
2019-06-10T09:59:03.773Z,1009.24
2019-06-10T10:00:03.403Z,1009.20
2019-06-10T10:01:03.487Z,1009.15
2019-06-10T10:02:06.173Z,1009.21
2019-06-10T10:03:03.481Z,1009.17
2019-06-10T10:04:02.878Z,1009.17
2019-06-10T10:05:03.052Z,1009.18
2019-06-10T10:06:11.455Z,1009.15
2019-06-10T10:07:03.248Z,1009.15
2019-06-10T10:08:03.156Z,1009.16
2019-06-10T10:09:04.109Z,1009.13
2019-06-10T10:10:04.512Z,1009.09
2019-06-10T10:11:03.378Z,1009.08
2019-06-10T10:12:03.448Z,1009.03
2019-06-10T10:13:03.520Z,1009.10
2019-06-10T10:14:08.165Z,1009.12
2019-06-10T10:15:22.586Z,1009.17
2019-06-10T10:16:03.737Z,1009.13
2019-06-10T10:17:04.742Z,1009.12
2019-06-10T10:18:03.881Z,1009.12
2019-06-10T10:19:05.179Z,1009.12
2019-06-10T10:20:04.037Z,1009.08
2019-06-10T10:21:04.156Z,1009.12
2019-06-10T10:22:04.180Z,1009.04
2019-06-10T10:23:04.249Z,1009.05
2019-06-10T10:24:09.884Z,1009.01
2019-06-10T10:25:04.499Z,1008.99
2019-06-10T10:26:04.462Z,1008.99
2019-06-10T10:27:08.280Z,1008.97
2019-06-10T10:28:04.608Z,1008.92
2019-06-10T10:29:05.166Z,1008.92
2019-06-10T10:30:04.761Z,1008.94
2019-06-10T10:31:04.944Z,1008.93
2019-06-10T10:32:04.894Z,1008.92
2019-06-10T10:33:04.970Z,1008.85
2019-06-10T10:34:05.041Z,1008.85
2019-06-10T10:35:05.216Z,1008.82
2019-06-10T10:36:05.182Z,1008.81
2019-06-10T10:37:05.256Z,1008.81
2019-06-10T10:38:05.327Z,1008.80
2019-06-10T10:39:05.398Z,1008.79
2019-06-10T10:40:05.482Z,1008.76
2019-06-10T10:41:05.554Z,1008.75
2019-06-10T10:42:05.626Z,1008.71
2019-06-10T10:43:23.370Z,1008.69
2019-06-10T10:44:05.755Z,1008.70
2019-06-10T10:45:05.840Z,1008.70
2019-06-10T10:46:06.205Z,1008.71
2019-06-10T10:47:05.986Z,1008.73
2019-06-10T10:48:06.044Z,1008.71
2019-06-10T10:49:06.116Z,1008.70
2019-06-10T10:50:06.203Z,1008.72
2019-06-10T10:51:06.289Z,1008.69
2019-06-10T10:52:06.334Z,1008.76
2019-06-10T10:53:06.400Z,1008.73
2019-06-10T10:54:24.690Z,1008.71
2019-06-10T10:55:07.095Z,1008.68
2019-06-10T10:56:06.658Z,1008.66
2019-06-10T10:57:06.683Z,1008.63
2019-06-10T10:58:06.760Z,1008.61
2019-06-10T10:59:06.827Z,1008.66
2019-06-10T11:00:06.908Z,1008.62
2019-06-10T11:01:06.976Z,1008.65
2019-06-10T11:02:07.039Z,1008.69
2019-06-10T11:03:07.116Z,1008.65
2019-06-10T11:04:07.188Z,1008.66
2019-06-10T11:05:07.252Z,1008.67
2019-06-10T11:06:07.492Z,1008.59
2019-06-10T11:07:07.399Z,1008.60
2019-06-10T11:08:07.472Z,1008.54
2019-06-10T11:09:07.540Z,1008.53
2019-06-10T11:10:07.612Z,1008.52
2019-06-10T11:11:07.689Z,1008.53
2019-06-10T11:12:07.757Z,1008.52
2019-06-10T11:13:07.824Z,1008.48
2019-06-10T11:14:07.904Z,1008.49
2019-06-10T11:15:07.964Z,1008.53
2019-06-10T11:16:08.054Z,1008.52
2019-06-10T11:17:08.120Z,1008.49
2019-06-10T11:18:08.184Z,1008.45
2019-06-10T11:19:08.248Z,1008.47
2019-06-10T11:20:08.321Z,1008.43
2019-06-10T11:21:08.416Z,1008.42
2019-06-10T11:22:08.465Z,1008.42
2019-06-10T11:23:08.536Z,1008.36
2019-06-10T11:24:08.604Z,1008.37
2019-06-10T11:25:08.677Z,1008.35
2019-06-10T11:26:08.757Z,1008.33
2019-06-10T11:27:08.829Z,1008.34
2019-06-10T11:28:08.889Z,1008.34
2019-06-10T11:29:08.960Z,1008.32
2019-06-10T11:30:09.037Z,1008.25
2019-06-10T11:31:09.137Z,1008.24
2019-06-10T11:32:09.177Z,1008.23
2019-06-10T11:33:09.264Z,1008.22
2019-06-10T11:34:09.317Z,1008.21
2019-06-10T11:35:09.390Z,1008.16
2019-06-10T11:36:09.469Z,1008.23
2019-06-10T11:37:09.537Z,1008.23
2019-06-10T11:38:09.606Z,1008.21
2019-06-10T11:39:09.673Z,1008.19
2019-06-10T11:40:09.745Z,1008.16
2019-06-10T11:41:09.825Z,1008.14
2019-06-10T11:42:09.894Z,1008.19
2019-06-10T11:43:09.958Z,1008.19
2019-06-10T11:44:10.031Z,1008.23
2019-06-10T11:45:10.101Z,1008.23
2019-06-10T11:46:12.826Z,1008.16
2019-06-10T11:47:12.582Z,1008.16
2019-06-10T11:48:10.314Z,1008.08
2019-06-10T11:49:12.615Z,1008.10
2019-06-10T11:50:12.146Z,1008.04
2019-06-10T11:51:12.898Z,1008.02
2019-06-10T11:52:12.622Z,1007.98
2019-06-10T11:53:12.820Z,1007.98
2019-06-10T11:54:12.912Z,1007.97
2019-06-10T11:55:16.537Z,1007.91
2019-06-10T11:56:13.085Z,1007.91
2019-06-10T11:57:12.498Z,1007.87
2019-06-10T11:58:11.028Z,1007.89
2019-06-10T11:59:13.400Z,1007.88
2019-06-10T12:00:14.730Z,1007.83
2019-06-10T12:01:12.992Z,1007.92
2019-06-10T12:02:13.266Z,1007.93
2019-06-10T12:03:13.152Z,1007.94
2019-06-10T12:04:12.849Z,1007.95
2019-06-10T12:05:13.068Z,1007.93
2019-06-10T12:06:13.527Z,1007.90